Time;durP1;ratioP1;P1;durP2;ratioP2;P2;SDS_P1;SDS_P2;PMS_P1;PMS_P2;Temp;Humidity;BMP_temperature;BMP_pressure;BME280_temperature;BME280_humidity;BME280_pressure;Samples;Min_cycle;Max_cycle;Signal;HPM_P1;HPM_P2
2021/07/16 00:00:00;;;;;;;21.15;18.55;;;;;;;;;;5051749;28;20036;-72
2021/07/16 00:02:25;;;;;;;23.15;19.23;;;;;;;;;;5050394;28;20504;-72
2021/07/16 00:04:51;;;;;;;25.65;18.92;;;;;;;;;;5050670;28;20495;-72
2021/07/16 00:07:17;;;;;;;22.23;18.90;;;;;;;;;;5064913;28;20031;-73
2021/07/16 00:09:42;;;;;;;22.13;18.55;;;;;;;;;;5051688;28;20028;-72
2021/07/16 00:12:08;;;;;;;22.58;18.05;;;;;;;;;;5051886;28;20029;-73
2021/07/16 00:14:34;;;;;;;21.80;17.48;;;;;;;;;;5052217;28;20025;-73
2021/07/16 00:17:00;;;;;;;23.33;18.27;;;;;;;;;;5052314;28;20029;-73
2021/07/16 00:19:26;;;;;;;26.40;19.98;;;;;;;;;;5053151;28;20032;-72
2021/07/16 00:21:52;;;;;;;22.92;19.63;;;;;;;;;;5053038;28;20484;-73
2021/07/16 00:24:19;;;;;;;21.13;18.08;;;;;;;;;;5052660;28;20033;-72
2021/07/16 00:26:46;;;;;;;20.35;17.20;;;;;;;;;;5053552;28;20395;-72
2021/07/16 00:29:12;;;;;;;17.70;15.73;;;;;;;;;;5056948;28;20032;-73
2021/07/16 00:31:38;;;;;;;30.73;18.60;;;;;;;;;;5056885;28;20106;-72
2021/07/16 00:34:03;;;;;;;183.05;29.05;;;;;;;;;;5056157;28;20072;-71
2021/07/16 00:36:29;;;;;;;72.32;27.73;;;;;;;;;;5073344;28;20482;-72
2021/07/16 00:38:54;;;;;;;123.03;32.05;;;;;;;;;;5088063;28;20081;-71
2021/07/16 00:41:20;;;;;;;49.63;28.33;;;;;;;;;;5078442;28;20372;-71
2021/07/16 00:43:45;;;;;;;49.92;30.00;;;;;;;;;;5054707;28;20032;-72
2021/07/16 00:46:10;;;;;;;58.85;32.20;;;;;;;;;;5070591;28;20020;-72
2021/07/16 00:48:37;;;;;;;45.88;28.30;;;;;;;;;;5074096;28;20059;-72
2021/07/16 00:51:03;;;;;;;43.67;26.73;;;;;;;;;;5074731;28;20082;-72
2021/07/16 00:53:29;;;;;;;30.38;24.90;;;;;;;;;;5074822;28;20472;-72
2021/07/16 00:55:54;;;;;;;37.08;24.20;;;;;;;;;;5074908;28;20029;-72
2021/07/16 00:58:20;;;;;;;36.33;23.67;;;;;;;;;;5075101;28;20069;-73
2021/07/16 01:00:46;;;;;;;34.08;23.27;;;;;;;;;;5074037;28;20035;-72
2021/07/16 01:03:11;;;;;;;35.53;23.48;;;;;;;;;;5074245;28;20471;-72
2021/07/16 01:05:38;;;;;;;33.88;22.90;;;;;;;;;;5074297;28;20037;-72
2021/07/16 01:08:03;;;;;;;39.95;23.00;;;;;;;;;;5074357;28;20055;-72
2021/07/16 01:10:30;;;;;;;25.00;19.75;;;;;;;;;;5074571;28;20025;-72
2021/07/16 01:12:56;;;;;;;25.20;17.23;;;;;;;;;;5074427;28;20047;-72
2021/07/16 01:15:24;;;;;;;23.58;17.02;;;;;;;;;;5074944;28;20029;-72
2021/07/16 01:17:51;;;;;;;25.95;19.55;;;;;;;;;;5088666;28;20064;-72
2021/07/16 01:20:23;;;;;;;24.52;18.90;;;;;;;;;;5053706;28;20017;-72
2021/07/16 01:22:49;;;;;;;29.48;21.30;;;;;;;;;;5053360;28;20021;-72
2021/07/16 01:25:17;;;;;;;34.88;22.98;;;;;;;;;;5070665;28;20028;-72
2021/07/16 01:27:47;;;;;;;31.73;20.23;;;;;;;;;;5072350;28;20135;-73
2021/07/16 01:30:15;;;;;;;34.15;21.67;;;;;;;;;;5072070;28;20120;-72
2021/07/16 01:32:41;;;;;;;56.33;22.70;;;;;;;;;;5073667;28;20032;-72
2021/07/16 01:35:08;;;;;;;63.20;22.55;;;;;;;;;;5071439;28;20487;-72
2021/07/16 01:37:35;;;;;;;84.25;24.63;;;;;;;;;;5072812;28;20044;-72
2021/07/16 01:40:05;;;;;;;56.80;23.45;;;;;;;;;;5093399;28;20107;-72
2021/07/16 01:42:39;;;;;;;65.20;23.58;;;;;;;;;;5093481;28;20032;-72
2021/07/16 01:45:09;;;;;;;42.42;22.90;;;;;;;;;;5093241;28;20024;-71
2021/07/16 01:47:35;;;;;;;57.97;23.60;;;;;;;;;;5093234;28;20044;-71
2021/07/16 01:50:03;;;;;;;65.40;23.38;;;;;;;;;;5093213;28;20067;-71
2021/07/16 01:52:29;;;;;;;35.03;22.85;;;;;;;;;;5068427;28;20028;-71
2021/07/16 01:54:54;;;;;;;43.17;22.25;;;;;;;;;;5052861;28;20476;-71
2021/07/16 01:57:20;;;;;;;63.97;22.73;;;;;;;;;;5070043;28;20028;-71
2021/07/16 01:59:45;;;;;;;50.60;22.80;;;;;;;;;;5071668;28;20106;-71
2021/07/16 02:02:11;;;;;;;58.45;23.80;;;;;;;;;;5063054;28;20035;-71
2021/07/16 02:04:36;;;;;;;59.25;25.17;;;;;;;;;;5052826;28;20021;-71
2021/07/16 02:07:02;;;;;;;62.28;26.30;;;;;;;;;;5060890;28;20055;-72
2021/07/16 02:09:27;;;;;;;58.03;24.23;;;;;;;;;;5072776;28;20028;-71
2021/07/16 02:11:57;;;;;;;55.75;24.05;;;;;;;;;;5072404;28;20391;-72
2021/07/16 02:14:25;;;;;;;101.65;25.33;;;;;;;;;;5072261;28;20177;-72
2021/07/16 02:16:51;;;;;;;83.47;22.88;;;;;;;;;;5085483;28;20016;-72
2021/07/16 02:19:16;;;;;;;68.60;22.80;;;;;;;;;;5054760;28;20025;-72
2021/07/16 02:21:42;;;;;;;52.63;23.48;;;;;;;;;;5056986;28;20028;-71
2021/07/16 02:24:07;;;;;;;58.35;23.85;;;;;;;;;;5072219;28;20032;-71
2021/07/16 02:26:35;;;;;;;41.95;23.17;;;;;;;;;;5071437;28;20059;-71
2021/07/16 02:29:01;;;;;;;37.00;23.33;;;;;;;;;;5052331;28;20464;-71
2021/07/16 02:31:26;;;;;;;35.85;22.75;;;;;;;;;;5061610;28;20056;-71
2021/07/16 02:33:52;;;;;;;32.45;21.45;;;;;;;;;;5071907;28;20024;-71
2021/07/16 02:36:18;;;;;;;31.73;21.17;;;;;;;;;;5072091;28;20430;-71
2021/07/16 02:38:46;;;;;;;32.53;21.23;;;;;;;;;;5082678;28;20031;-71
2021/07/16 02:41:12;;;;;;;49.03;22.17;;;;;;;;;;5080470;28;20491;-72
2021/07/16 02:43:38;;;;;;;59.20;21.48;;;;;;;;;;5071872;28;20020;-72
2021/07/16 02:46:04;;;;;;;54.13;18.85;;;;;;;;;;5071800;28;20475;-72
2021/07/16 02:48:30;;;;;;;69.93;20.13;;;;;;;;;;5071901;28;20052;-72
2021/07/16 02:50:56;;;;;;;79.35;20.23;;;;;;;;;;5070753;28;20476;-71
2021/07/16 02:53:22;;;;;;;91.47;20.20;;;;;;;;;;5071900;28;20016;-71
2021/07/16 02:55:51;;;;;;;55.33;20.55;;;;;;;;;;5059853;28;20052;-71
2021/07/16 02:58:16;;;;;;;136.15;21.92;;;;;;;;;;5061276;28;20024;-71
2021/07/16 03:00:42;;;;;;;151.90;22.30;;;;;;;;;;5071726;28;20024;-71
2021/07/16 03:03:09;;;;;;;134.90;21.45;;;;;;;;;;5060165;28;20032;-72
2021/07/16 03:05:36;;;;;;;167.07;21.92;;;;;;;;;;5051698;28;20032;-72
2021/07/16 03:08:04;;;;;;;85.65;20.48;;;;;;;;;;5051495;28;20484;-72
2021/07/16 03:10:32;;;;;;;149.30;21.05;;;;;;;;;;5053808;28;20083;-72
2021/07/16 03:13:01;;;;;;;164.52;22.45;;;;;;;;;;5071279;28;20078;-72
2021/07/16 03:15:26;;;;;;;120.47;20.45;;;;;;;;;;5072552;28;20044;-72
2021/07/16 03:17:53;;;;;;;199.85;22.98;;;;;;;;;;5091605;28;20051;-72
2021/07/16 03:20:25;;;;;;;158.45;21.40;;;;;;;;;;5091073;28;20024;-72
2021/07/16 03:22:51;;;;;;;113.18;21.42;;;;;;;;;;5051437;28;20071;-72
2021/07/16 03:25:18;;;;;;;105.75;21.70;;;;;;;;;;5067324;28;20035;-72
2021/07/16 03:27:45;;;;;;;112.03;20.75;;;;;;;;;;5053547;28;20039;-72
2021/07/16 03:30:14;;;;;;;94.65;20.83;;;;;;;;;;5051099;28;20029;-72
2021/07/16 03:32:40;;;;;;;46.97;18.73;;;;;;;;;;5051273;28;20025;-72
2021/07/16 03:35:08;;;;;;;48.20;20.40;;;;;;;;;;5051314;28;20029;-72
2021/07/16 03:37:34;;;;;;;54.50;19.98;;;;;;;;;;5052655;28;20020;-71
2021/07/16 03:39:59;;;;;;;34.22;18.85;;;;;;;;;;5091255;28;20024;-72
2021/07/16 03:42:25;;;;;;;61.88;19.02;;;;;;;;;;5091440;28;20099;-72
2021/07/16 03:44:51;;;;;;;52.70;19.20;;;;;;;;;;5091243;28;20028;-72
2021/07/16 03:47:17;;;;;;;47.00;18.83;;;;;;;;;;5091164;28;20043;-72
2021/07/16 03:49:44;;;;;;;40.47;19.52;;;;;;;;;;5077908;28;20036;-72
2021/07/16 03:52:09;;;;;;;61.78;20.10;;;;;;;;;;5069345;28;20229;-72
2021/07/16 03:54:36;;;;;;;58.17;20.55;;;;;;;;;;5071057;28;20098;-72
2021/07/16 03:57:04;;;;;;;41.08;19.40;;;;;;;;;;5070942;28;20047;-72
2021/07/16 03:59:30;;;;;;;41.90;19.30;;;;;;;;;;5069412;28;20389;-71
2021/07/16 04:01:56;;;;;;;46.53;19.88;;;;;;;;;;5070519;28;20024;-71
2021/07/16 04:04:21;;;;;;;52.05;19.98;;;;;;;;;;5070553;28;20024;-71
2021/07/16 04:06:53;;;;;;;61.85;20.58;;;;;;;;;;5070894;28;20035;-71
2021/07/16 04:09:28;;;;;;;53.95;20.83;;;;;;;;;;5062237;28;20548;-71
2021/07/16 04:12:12;;;;;;;63.13;19.08;;;;;;;;;;5050820;28;20460;-71
2021/07/16 04:14:54;;;;;;;101.43;19.67;;;;;;;;;;5050794;28;20056;-71
2021/07/16 04:17:19;;;;;;;42.08;18.77;;;;;;;;;;5084482;28;20399;-71
2021/07/16 04:19:45;;;;;;;45.33;18.65;;;;;;;;;;5090924;28;20119;-71
2021/07/16 04:22:12;;;;;;;63.72;19.00;;;;;;;;;;5090746;28;20016;-71
2021/07/16 04:24:39;;;;;;;64.75;18.75;;;;;;;;;;5081688;28;20020;-71
2021/07/16 04:27:05;;;;;;;31.17;16.90;;;;;;;;;;5070522;28;20447;-71
2021/07/16 04:29:32;;;;;;;25.58;16.45;;;;;;;;;;5062125;28;20021;-71
2021/07/16 04:31:58;;;;;;;33.67;16.05;;;;;;;;;;5062454;28;20109;-71
2021/07/16 04:34:25;;;;;;;26.05;16.35;;;;;;;;;;5050524;28;20510;-71
2021/07/16 04:36:50;;;;;;;31.60;17.52;;;;;;;;;;5055808;28;20031;-72
2021/07/16 04:39:15;;;;;;;22.25;17.40;;;;;;;;;;5085409;28;20498;-71
2021/07/16 04:41:41;;;;;;;21.92;18.80;;;;;;;;;;5090885;28;20471;-71
2021/07/16 04:44:07;;;;;;;21.13;18.92;;;;;;;;;;5073362;28;20035;-71
2021/07/16 04:46:32;;;;;;;21.67;18.60;;;;;;;;;;5063331;28;20410;-71
2021/07/16 04:48:58;;;;;;;23.27;18.83;;;;;;;;;;5070396;28;20740;-71
2021/07/16 04:51:34;;;;;;;25.48;21.23;;;;;;;;;;5058304;28;20376;-71
2021/07/16 04:54:01;;;;;;;22.40;20.10;;;;;;;;;;5056427;28;20029;-71
2021/07/16 04:56:27;;;;;;;20.67;18.65;;;;;;;;;;5052008;28;20029;-71
2021/07/16 04:58:53;;;;;;;19.08;17.27;;;;;;;;;;5067890;28;20480;-72
2021/07/16 05:01:21;;;;;;;19.05;17.33;;;;;;;;;;5068525;28;20028;-71
2021/07/16 05:03:49;;;;;;;17.95;16.25;;;;;;;;;;5065768;28;20029;-72
2021/07/16 05:06:14;;;;;;;18.45;16.65;;;;;;;;;;5051960;28;20461;-71
2021/07/16 05:08:42;;;;;;;16.25;14.75;;;;;;;;;;5051319;28;20040;-72
2021/07/16 05:11:08;;;;;;;16.25;14.75;;;;;;;;;;5051356;28;20025;-72
2021/07/16 05:13:36;;;;;;;13.45;12.25;;;;;;;;;;5052407;28;20056;-71
2021/07/16 05:16:07;;;;;;;12.70;11.60;;;;;;;;;;5066444;28;20375;-70
2021/07/16 05:18:32;;;;;;;12.77;11.57;;;;;;;;;;5094381;28;20538;-72
2021/07/16 05:20:59;;;;;;;13.45;12.15;;;;;;;;;;5087488;28;20116;-72
2021/07/16 05:23:24;;;;;;;12.40;11.30;;;;;;;;;;5071505;28;20025;-72
2021/07/16 05:25:52;;;;;;;12.93;11.60;;;;;;;;;;5063897;28;20036;-72
2021/07/16 05:28:18;;;;;;;12.85;11.43;;;;;;;;;;5056121;28;20039;-71
2021/07/16 05:30:44;;;;;;;12.23;10.95;;;;;;;;;;5070049;28;20392;-71
2021/07/16 05:33:10;;;;;;;13.23;11.93;;;;;;;;;;5071658;28;20033;-70
2021/07/16 05:35:35;;;;;;;12.35;10.93;;;;;;;;;;5073923;28;20021;-70
2021/07/16 05:38:01;;;;;;;12.80;11.60;;;;;;;;;;5070783;28;20245;-71
2021/07/16 05:40:26;;;;;;;12.23;11.18;;;;;;;;;;5075258;28;20029;-69
2021/07/16 05:42:52;;;;;;;12.43;11.32;;;;;;;;;;5060325;28;20421;-71
2021/07/16 05:45:18;;;;;;;13.07;11.77;;;;;;;;;;5057114;28;20104;-70
2021/07/16 05:47:44;;;;;;;12.88;11.68;;;;;;;;;;5073010;28;20445;-72
2021/07/16 05:50:10;;;;;;;13.35;12.05;;;;;;;;;;5073379;28;20021;-70
2021/07/16 05:52:35;;;;;;;11.63;10.55;;;;;;;;;;5064112;28;20380;-71
2021/07/16 05:55:01;;;;;;;11.82;10.82;;;;;;;;;;5053899;28;20033;-70
2021/07/16 05:57:27;;;;;;;11.95;10.85;;;;;;;;;;5068529;28;20025;-70
2021/07/16 05:59:53;;;;;;;11.57;10.48;;;;;;;;;;5053463;28;20468;-70
2021/07/16 06:02:18;;;;;;;11.82;10.75;;;;;;;;;;5053209;28;20026;-69
2021/07/16 06:04:44;;;;;;;12.18;10.85;;;;;;;;;;5053435;28;20025;-70
2021/07/16 06:07:10;;;;;;;11.90;10.80;;;;;;;;;;5070508;28;20098;-69
2021/07/16 06:09:35;;;;;;;11.35;10.35;;;;;;;;;;5053170;28;20036;-70
2021/07/16 06:12:01;;;;;;;12.18;10.38;;;;;;;;;;5051445;28;20143;-69
2021/07/16 06:14:29;;;;;;;11.93;10.68;;;;;;;;;;5053059;28;20112;-69
2021/07/16 06:16:55;;;;;;;11.50;10.30;;;;;;;;;;5081898;28;20023;-72
2021/07/16 06:19:21;;;;;;;13.32;11.10;;;;;;;;;;5055133;28;20164;-70
2021/07/16 06:21:47;;;;;;;11.90;10.80;;;;;;;;;;5052811;28;20460;-71
2021/07/16 06:24:12;;;;;;;12.40;10.32;;;;;;;;;;5053669;28;20028;-70
2021/07/16 06:26:38;;;;;;;11.35;10.25;;;;;;;;;;5065660;28;20032;-70
2021/07/16 06:29:05;;;;;;;11.30;10.15;;;;;;;;;;5072370;28;20029;-72
2021/07/16 06:31:31;;;;;;;11.05;9.95;;;;;;;;;;5072354;28;20481;-70
2021/07/16 06:33:57;;;;;;;11.57;10.45;;;;;;;;;;5072714;28;20033;-70
2021/07/16 06:36:23;;;;;;;10.85;9.85;;;;;;;;;;5061051;28;20029;-72
2021/07/16 06:38:49;;;;;;;10.43;9.30;;;;;;;;;;5053326;28;20039;-73
2021/07/16 06:41:14;;;;;;;11.07;9.95;;;;;;;;;;5051918;28;20017;-72
2021/07/16 06:43:40;;;;;;;12.05;10.32;;;;;;;;;;5069416;28;20543;-72
2021/07/16 06:46:08;;;;;;;10.45;9.45;;;;;;;;;;5067494;28;20097;-73
2021/07/16 06:48:34;;;;;;;10.40;9.40;;;;;;;;;;5068587;28;20059;-74
2021/07/16 06:51:00;;;;;;;11.50;8.70;;;;;;;;;;5064970;28;20029;-72
2021/07/16 06:53:27;;;;;;;11.77;8.63;;;;;;;;;;5067962;28;20345;-73
2021/07/16 06:55:52;;;;;;;10.48;9.30;;;;;;;;;;5073080;28;20033;-72
2021/07/16 06:58:18;;;;;;;12.60;9.90;;;;;;;;;;5050869;28;20035;-72
2021/07/16 07:00:44;;;;;;;9.45;8.50;;;;;;;;;;5066202;28;20120;-71
2021/07/16 07:03:10;;;;;;;10.02;9.00;;;;;;;;;;5061654;28;20440;-71
2021/07/16 07:05:36;;;;;;;11.38;9.25;;;;;;;;;;5064535;28;20024;-72
2021/07/16 07:08:03;;;;;;;10.20;9.02;;;;;;;;;;5073490;28;20464;-71
2021/07/16 07:10:29;;;;;;;12.05;8.82;;;;;;;;;;5062915;28;20028;-72
2021/07/16 07:12:54;;;;;;;10.23;9.23;;;;;;;;;;5064139;28;20032;-72
2021/07/16 07:15:20;;;;;;;10.13;9.13;;;;;;;;;;5059981;28;20052;-72
2021/07/16 07:17:46;;;;;;;12.38;9.27;;;;;;;;;;5064377;28;20028;-70
2021/07/16 07:20:12;;;;;;;10.25;8.80;;;;;;;;;;5063478;28;20689;-72
2021/07/16 07:22:38;;;;;;;10.68;9.57;;;;;;;;;;5056833;28;20039;-74
2021/07/16 07:25:04;;;;;;;9.95;8.90;;;;;;;;;;5062939;28;20032;-72
2021/07/16 07:27:32;;;;;;;10.95;9.38;;;;;;;;;;5062144;28;20020;-73
2021/07/16 07:29:57;;;;;;;10.65;8.65;;;;;;;;;;5063218;28;20035;-70
2021/07/16 07:32:23;;;;;;;10.25;9.20;;;;;;;;;;5064497;28;20021;-71
2021/07/16 07:34:49;;;;;;;10.45;9.45;;;;;;;;;;5066892;28;20036;-72
2021/07/16 07:37:15;;;;;;;9.95;8.75;;;;;;;;;;5068412;28;20024;-73
2021/07/16 07:39:41;;;;;;;9.95;8.73;;;;;;;;;;5067328;28;20071;-71
2021/07/16 07:42:11;;;;;;;12.77;9.30;;;;;;;;;;5056192;28;20116;-72
2021/07/16 07:44:36;;;;;;;9.95;8.63;;;;;;;;;;5061814;28;20036;-71
2021/07/16 07:47:02;;;;;;;10.10;9.10;;;;;;;;;;5055647;28;20041;-73
2021/07/16 07:49:28;;;;;;;9.57;8.63;;;;;;;;;;5057892;28;20024;-73
2021/07/16 07:51:54;;;;;;;11.82;10.35;;;;;;;;;;5052980;28;20028;-72
2021/07/16 07:54:20;;;;;;;12.13;8.98;;;;;;;;;;5059321;28;20464;-73
2021/07/16 07:56:45;;;;;;;10.60;9.38;;;;;;;;;;5062282;28;20031;-73
2021/07/16 07:59:11;;;;;;;10.85;9.50;;;;;;;;;;5077145;28;20364;-72
2021/07/16 08:01:42;;;;;;;9.88;8.98;;;;;;;;;;5065754;28;20023;-73
2021/07/16 08:04:07;;;;;;;11.20;9.20;;;;;;;;;;5062409;28;20025;-72
2021/07/16 08:06:33;;;;;;;10.02;8.88;;;;;;;;;;5061670;28;20464;-72
2021/07/16 08:08:58;;;;;;;10.95;8.95;;;;;;;;;;5058113;28;20074;-74
2021/07/16 08:11:29;;;;;;;9.95;8.95;;;;;;;;;;5057600;28;20021;-75
2021/07/16 08:13:55;;;;;;;12.60;9.57;;;;;;;;;;5070457;28;20118;-73
2021/07/16 08:16:21;;;;;;;10.68;9.57;;;;;;;;;;5071059;28;20044;-74
2021/07/16 08:18:46;;;;;;;11.35;9.55;;;;;;;;;;5070734;28;20028;-72
2021/07/16 08:21:12;;;;;;;12.50;10.32;;;;;;;;;;5070626;28;20029;-70
2021/07/16 08:23:37;;;;;;;10.23;9.23;;;;;;;;;;5065255;28;20024;-71
2021/07/16 08:26:03;;;;;;;9.75;8.73;;;;;;;;;;5054799;28;20662;-73
2021/07/16 08:28:29;;;;;;;9.38;8.50;;;;;;;;;;5066779;28;20032;-72
2021/07/16 08:30:55;;;;;;;10.52;9.10;;;;;;;;;;5053745;28;20021;-71
2021/07/16 08:33:20;;;;;;;10.70;9.52;;;;;;;;;;5062301;28;20452;-72
2021/07/16 08:35:47;;;;;;;10.60;8.73;;;;;;;;;;5060784;28;20079;-70
2021/07/16 08:38:12;;;;;;;10.00;8.73;;;;;;;;;;5071670;28;20052;-72
2021/07/16 08:40:38;;;;;;;12.20;9.90;;;;;;;;;;5055543;28;20500;-70
2021/07/16 08:43:05;;;;;;;10.88;9.73;;;;;;;;;;5065645;28;20059;-70
2021/07/16 08:45:31;;;;;;;11.00;9.85;;;;;;;;;;5057926;28;20027;-73
2021/07/16 08:47:57;;;;;;;12.70;11.30;;;;;;;;;;5062457;28;20052;-71
2021/07/16 08:50:23;;;;;;;11.48;9.80;;;;;;;;;;5063070;28;20013;-71
2021/07/16 08:52:49;;;;;;;10.73;9.60;;;;;;;;;;5066188;28;20036;-72
2021/07/16 08:55:15;;;;;;;12.32;10.05;;;;;;;;;;5064792;28;20415;-71
2021/07/16 08:57:42;;;;;;;11.02;9.93;;;;;;;;;;5056321;28;20040;-71
2021/07/16 09:00:13;;;;;;;11.52;9.57;;;;;;;;;;5064614;28;20025;-70
2021/07/16 09:02:54;;;;;;;11.05;9.52;;;;;;;;;;5072183;28;20032;-71
2021/07/16 09:05:38;;;;;;;11.75;10.15;;;;;;;;;;5074237;28;20039;-71
2021/07/16 09:08:11;;;;;;;10.77;9.68;;;;;;;;;;5065166;28;20044;-72
2021/07/16 09:10:43;;;;;;;10.73;9.63;;;;;;;;;;5066357;28;20025;-73
2021/07/16 09:13:09;;;;;;;11.23;10.13;;;;;;;;;;5069283;28;20082;-71
2021/07/16 09:15:35;;;;;;;11.70;10.00;;;;;;;;;;5076314;28;20476;-71
2021/07/16 09:18:32;;;;;;;10.90;9.90;;;;;;;;;;5073937;28;20376;-72
2021/07/16 09:21:03;;;;;;;12.57;9.88;;;;;;;;;;5062938;28;20108;-71
2021/07/16 09:23:39;;;;;;;11.57;9.27;;;;;;;;;;5057105;28;20415;-72
2021/07/16 09:26:12;;;;;;;10.10;9.05;;;;;;;;;;5061246;28;20033;-72
2021/07/16 09:28:41;;;;;;;10.55;9.52;;;;;;;;;;5062229;28;20036;-70
2021/07/16 09:31:17;;;;;;;9.80;8.27;;;;;;;;;;5066981;28;20032;-73
2021/07/16 09:33:49;;;;;;;10.23;8.98;;;;;;;;;;5065326;28;20426;-72
2021/07/16 09:36:33;;;;;;;11.37;9.43;;;;;;;;;;5060848;28;20047;-72
2021/07/16 09:39:10;;;;;;;10.75;9.65;;;;;;;;;;5066261;28;20372;-74
2021/07/16 09:41:51;;;;;;;10.52;9.63;;;;;;;;;;5070376;28;20028;-71
2021/07/16 09:44:31;;;;;;;10.73;9.63;;;;;;;;;;5061593;28;20025;-72
2021/07/16 09:47:16;;;;;;;12.48;9.68;;;;;;;;;;5061363;28;20029;-70
2021/07/16 09:49:44;;;;;;;10.45;9.10;;;;;;;;;;5086023;28;20024;-70
2021/07/16 09:52:19;;;;;;;11.05;9.68;;;;;;;;;;5087001;28;20024;-72
2021/07/16 09:55:10;;;;;;;10.77;9.43;;;;;;;;;;5071954;28;20036;-71
2021/07/16 09:57:43;;;;;;;10.20;9.27;;;;;;;;;;5067044;28;20025;-72
2021/07/16 10:00:26;;;;;;;13.52;9.13;;;;;;;;;;5072208;28;20032;-70
2021/07/16 10:02:56;;;;;;;9.95;8.93;;;;;;;;;;5054640;28;20055;-72
2021/07/16 10:05:23;;;;;;;10.38;9.00;;;;;;;;;;5060777;28;20387;-72
2021/07/16 10:07:50;;;;;;;9.68;8.70;;;;;;;;;;5070740;28;20028;-73
2021/07/16 10:10:22;;;;;;;12.02;9.25;;;;;;;;;;5071411;28;20430;-73
2021/07/16 10:12:50;;;;;;;15.02;9.25;;;;;;;;;;5068108;28;20029;-72
2021/07/16 10:15:17;;;;;;;10.00;9.00;;;;;;;;;;5062250;28;20029;-71
2021/07/16 10:17:45;;;;;;;10.27;8.48;;;;;;;;;;5065654;28;20120;-71
2021/07/16 10:20:12;;;;;;;9.63;8.63;;;;;;;;;;5063716;28;20048;-75
2021/07/16 10:22:39;;;;;;;9.88;8.40;;;;;;;;;;5062311;28;20028;-73
2021/07/16 10:25:07;;;;;;;12.20;8.20;;;;;;;;;;5070195;28;20021;-74
2021/07/16 10:27:34;;;;;;;14.05;8.35;;;;;;;;;;5063211;28;20399;-74
2021/07/16 10:30:08;;;;;;;10.73;9.63;;;;;;;;;;5053632;28;20035;-73
2021/07/16 10:32:48;;;;;;;10.77;9.68;;;;;;;;;;5052980;28;20029;-74
2021/07/16 10:35:21;;;;;;;11.48;9.40;;;;;;;;;;5053046;28;20162;-74
2021/07/16 10:37:48;;;;;;;11.40;9.63;;;;;;;;;;5072833;28;20508;-73
2021/07/16 10:40:37;;;;;;;10.90;8.88;;;;;;;;;;5075581;28;20040;-73
2021/07/16 10:43:04;;;;;;;10.95;9.82;;;;;;;;;;5071503;28;20085;-75
2021/07/16 10:45:35;;;;;;;10.70;9.60;;;;;;;;;;5070989;28;20017;-74
2021/07/16 10:48:13;;;;;;;10.98;9.82;;;;;;;;;;5070851;28;20044;-74
2021/07/16 10:50:40;;;;;;;13.43;9.85;;;;;;;;;;5064930;28;20056;-73
2021/07/16 10:53:12;;;;;;;13.38;10.07;;;;;;;;;;5056246;28;20032;-72
2021/07/16 10:55:38;;;;;;;12.65;10.02;;;;;;;;;;5053064;28;20021;-75
2021/07/16 10:58:21;;;;;;;13.35;10.27;;;;;;;;;;5068792;28;20035;-75
2021/07/16 11:00:53;;;;;;;;;;;;;;;;;;5058898;28;20047;-73
2021/07/16 11:03:41;;;;;;;10.98;9.55;;;;;;;;;;5052763;28;19948;-75
2021/07/16 11:06:09;;;;;;;9.88;8.85;;;;;;;;;;5064199;28;20085;-73
2021/07/16 11:08:35;;;;;;;12.80;9.38;;;;;;;;;;5063832;28;20430;-72
2021/07/16 11:11:07;;;;;;;14.38;10.30;;;;;;;;;;5057945;28;20025;-70
2021/07/16 11:13:34;;;;;;;10.20;9.15;;;;;;;;;;5066465;28;20032;-71
2021/07/16 11:16:30;;;;;;;11.43;10.10;;;;;;;;;;5066851;28;20024;-72
2021/07/16 11:19:07;;;;;;;11.02;9.93;;;;;;;;;;5053467;28;20055;-72
2021/07/16 11:21:39;;;;;;;11.82;8.93;;;;;;;;;;5058638;28;20036;-72
2021/07/16 11:24:21;;;;;;;13.90;9.93;;;;;;;;;;5061496;28;20028;-72
2021/07/16 11:26:58;;;;;;;9.77;8.75;;;;;;;;;;5066713;28;20478;-73
2021/07/16 11:29:23;;;;;;;10.25;9.32;;;;;;;;;;5064947;28;20025;-71
2021/07/16 11:32:14;;;;;;;11.38;9.13;;;;;;;;;;5058798;28;20039;-72
2021/07/16 11:34:52;;;;;;;10.07;9.07;;;;;;;;;;5065878;28;20117;-72
2021/07/16 11:37:33;;;;;;;12.32;9.20;;;;;;;;;;5066321;28;20029;-72
2021/07/16 11:40:25;;;;;;;10.43;9.25;;;;;;;;;;5053783;28;20460;-73
2021/07/16 11:42:56;;;;;;;10.20;8.77;;;;;;;;;;5057707;28;20032;-72
2021/07/16 11:45:27;;;;;;;11.60;9.30;;;;;;;;;;5072238;28;20024;-75
2021/07/16 11:47:55;;;;;;;10.30;9.30;;;;;;;;;;5063802;28;20127;-74
2021/07/16 11:50:21;;;;;;;10.50;8.90;;;;;;;;;;5055952;28;20021;-73
2021/07/16 11:52:49;;;;;;;12.07;9.73;;;;;;;;;;5057271;28;20074;-73
2021/07/16 11:55:19;;;;;;;10.75;9.57;;;;;;;;;;5052886;28;20444;-73
2021/07/16 11:57:52;;;;;;;11.93;9.50;;;;;;;;;;5064045;28;20048;-72
2021/07/16 12:00:20;;;;;;;11.48;8.45;;;;;;;;;;5061012;28;20029;-71
2021/07/16 12:02:45;;;;;;;20.52;7.85;;;;;;;;;;5066262;28;20449;-73
2021/07/16 12:05:12;;;;;;;9.07;7.60;;;;;;;;;;5064634;28;20063;-72
2021/07/16 12:07:40;;;;;;;11.52;7.35;;;;;;;;;;5058197;28;20028;-73
2021/07/16 12:10:13;;;;;;;7.75;6.78;;;;;;;;;;5061231;28;20411;-73
2021/07/16 12:12:38;;;;;;;;;;;;;;;;;;5070661;28;20472;-72
2021/07/16 12:15:06;;;;;;;8.20;7.00;;;;;;;;;;5071639;28;19916;-72
2021/07/16 12:17:41;;;;;;;11.48;7.22;;;;;;;;;;5068703;28;20037;-74
2021/07/16 12:20:10;;;;;;;9.00;7.15;;;;;;;;;;5058819;28;20029;-72
2021/07/16 12:22:44;;;;;;;8.07;6.20;;;;;;;;;;5058980;28;20036;-72
2021/07/16 12:25:15;;;;;;;8.57;6.80;;;;;;;;;;5061631;28;20427;-73
2021/07/16 12:28:02;;;;;;;11.57;7.07;;;;;;;;;;5056060;28;20121;-72
2021/07/16 12:30:27;;;;;;;9.52;6.28;;;;;;;;;;5057295;28;20629;-72
2021/07/16 12:33:00;;;;;;;7.05;5.65;;;;;;;;;;5074004;28;20040;-73
2021/07/16 12:35:27;;;;;;;7.00;5.80;;;;;;;;;;5068179;28;20391;-71
2021/07/16 12:38:06;;;;;;;9.45;5.63;;;;;;;;;;5062672;28;20024;-72
2021/07/16 12:40:32;;;;;;;9.50;6.38;;;;;;;;;;5073062;28;20020;-72
2021/07/16 12:43:11;;;;;;;7.53;5.88;;;;;;;;;;5065520;28;20479;-73
2021/07/16 12:45:46;;;;;;;8.63;6.00;;;;;;;;;;5058002;28;20025;-69
2021/07/16 12:48:26;;;;;;;9.43;5.93;;;;;;;;;;5055193;28;20045;-69
2021/07/16 12:50:52;;;;;;;8.88;6.20;;;;;;;;;;5065574;28;20047;-70
2021/07/16 12:53:36;;;;;;;10.25;6.43;;;;;;;;;;5065617;28;20028;-72
2021/07/16 12:56:23;;;;;;;8.90;5.95;;;;;;;;;;5057887;28;20349;-73
2021/07/16 12:58:51;;;;;;;9.70;6.60;;;;;;;;;;5064477;28;20116;-71
2021/07/16 13:01:31;;;;;;;7.10;6.13;;;;;;;;;;5071749;28;20028;-75
2021/07/16 13:03:57;;;;;;;7.97;6.50;;;;;;;;;;5068700;28;20418;-73
2021/07/16 13:06:31;;;;;;;8.75;7.10;;;;;;;;;;5070620;28;20024;-69
2021/07/16 13:09:25;;;;;;;9.85;7.10;;;;;;;;;;5073559;28;20039;-70
2021/07/16 13:12:03;;;;;;;9.93;6.88;;;;;;;;;;5056222;28;20090;-70
2021/07/16 13:14:39;;;;;;;9.30;7.22;;;;;;;;;;5055771;28;20017;-71
2021/07/16 13:17:38;;;;;;;10.65;6.68;;;;;;;;;;5084914;28;20735;-70
2021/07/16 13:20:04;;;;;;;8.05;6.68;;;;;;;;;;5095473;28;20176;-71
2021/07/16 13:22:42;;;;;;;9.60;6.72;;;;;;;;;;5094520;28;20020;-72
2021/07/16 13:25:09;;;;;;;8.50;6.50;;;;;;;;;;5094922;28;20024;-71
2021/07/16 13:27:35;;;;;;;10.52;7.43;;;;;;;;;;5094243;28;20115;-70
2021/07/16 13:30:02;;;;;;;8.73;6.40;;;;;;;;;;5094008;28;20058;-71
2021/07/16 13:32:28;;;;;;;8.32;6.10;;;;;;;;;;5093937;28;20032;-71
2021/07/16 13:34:53;;;;;;;8.63;6.32;;;;;;;;;;5093182;28;20030;-71
2021/07/16 13:37:19;;;;;;;9.68;6.03;;;;;;;;;;5094077;28;20499;-71
2021/07/16 13:39:44;;;;;;;9.23;6.05;;;;;;;;;;5074475;28;20032;-71
2021/07/16 13:42:10;;;;;;;10.60;6.00;;;;;;;;;;5073517;28;20380;-72
2021/07/16 13:44:36;;;;;;;9.57;5.20;;;;;;;;;;5073851;28;20383;-69
2021/07/16 13:47:02;;;;;;;9.52;5.10;;;;;;;;;;5073323;28;20082;-71
2021/07/16 13:49:28;;;;;;;6.22;4.07;;;;;;;;;;5073664;28;20037;-69
2021/07/16 13:51:58;;;;;;;7.68;4.30;;;;;;;;;;5073370;28;20037;-71
2021/07/16 13:54:23;;;;;;;9.82;4.72;;;;;;;;;;5073212;28;20103;-71
2021/07/16 13:56:51;;;;;;;8.68;4.72;;;;;;;;;;5073794;28;20063;-71
2021/07/16 13:59:17;;;;;;;11.02;5.18;;;;;;;;;;5073348;28;20073;-71
2021/07/16 14:01:42;;;;;;;10.32;4.32;;;;;;;;;;5073414;28;20472;-69
2021/07/16 14:04:08;;;;;;;8.27;3.78;;;;;;;;;;5073357;28;20059;-71
2021/07/16 14:06:34;;;;;;;8.95;4.20;;;;;;;;;;5073581;28;20060;-72
2021/07/16 14:09:00;;;;;;;11.68;4.20;;;;;;;;;;5073396;28;20024;-71
2021/07/16 14:11:25;;;;;;;7.80;4.32;;;;;;;;;;5073412;28;20021;-71
2021/07/16 14:13:51;;;;;;;9.15;3.97;;;;;;;;;;5072768;28;20025;-72
2021/07/16 14:16:16;;;;;;;7.63;3.45;;;;;;;;;;5073013;28;20028;-70
2021/07/16 14:18:42;;;;;;;8.10;4.10;;;;;;;;;;5072035;28;20028;-71
2021/07/16 14:21:07;;;;;;;7.00;4.03;;;;;;;;;;5073330;28;20078;-72
2021/07/16 14:23:32;;;;;;;6.25;3.95;;;;;;;;;;5072480;28;20472;-69
2021/07/16 14:25:58;;;;;;;7.00;3.38;;;;;;;;;;5073073;28;20029;-70
2021/07/16 14:28:24;;;;;;;6.45;3.15;;;;;;;;;;5072714;28;20046;-70
2021/07/16 14:30:51;;;;;;;7.50;3.58;;;;;;;;;;5072420;28;20025;-71
2021/07/16 14:33:17;;;;;;;11.50;4.05;;;;;;;;;;5072445;28;20525;-71